Time;durP1;ratioP1;P1;durP2;ratioP2;P2;SDS_P1;SDS_P2;PMS_P1;PMS_P2;Temp;Humidity;BMP_temperature;BMP_pressure;BME280_temperature;BME280_humidity;BME280_pressure;Samples;Min_cycle;Max_cycle;Signal;HPM_P1;HPM_P2
2021/09/26 00:00:58;;;;;;;10.90;8.73;;;;;;;;;;4930598;28;20331;-72
2021/09/26 00:03:23;;;;;;;9.07;8.17;;;;;;;;;;4932610;28;20191;-71
2021/09/26 00:05:48;;;;;;;9.37;8.03;;;;;;;;;;4929497;28;20215;-71
2021/09/26 00:08:14;;;;;;;9.50;8.60;;;;;;;;;;4926047;28;20187;-72
2021/09/26 00:10:39;;;;;;;9.30;8.30;;;;;;;;;;4929001;28;20239;-71
2021/09/26 00:13:04;;;;;;;8.90;8.10;;;;;;;;;;4926983;28;20829;-72
2021/09/26 00:15:30;;;;;;;8.93;7.90;;;;;;;;;;4935132;28;20242;-71
2021/09/26 00:17:55;;;;;;;9.87;8.60;;;;;;;;;;4932901;28;20176;-71
2021/09/26 00:20:21;;;;;;;9.67;8.73;;;;;;;;;;4935427;28;20196;-71
2021/09/26 00:22:46;;;;;;;9.33;8.50;;;;;;;;;;4932257;28;20279;-71
2021/09/26 00:25:13;;;;;;;9.13;7.90;;;;;;;;;;4931081;28;20251;-72
2021/09/26 00:27:38;;;;;;;12.97;8.80;;;;;;;;;;4932235;28;20219;-71
2021/09/26 00:30:04;;;;;;;9.37;8.53;;;;;;;;;;4934072;28;20451;-72
2021/09/26 00:32:29;;;;;;;10.13;8.23;;;;;;;;;;4935026;28;20645;-71
2021/09/26 00:34:55;;;;;;;8.47;7.67;;;;;;;;;;4932036;28;20459;-73
2021/09/26 00:37:20;;;;;;;10.00;9.00;;;;;;;;;;4933420;28;20682;-71
2021/09/26 00:39:45;;;;;;;10.23;7.27;;;;;;;;;;4931132;28;20199;-71
2021/09/26 00:42:10;;;;;;;10.90;8.03;;;;;;;;;;4932190;28;20215;-72
2021/09/26 00:44:36;;;;;;;11.47;8.20;;;;;;;;;;4932203;28;20183;-71
2021/09/26 00:47:01;;;;;;;8.17;7.40;;;;;;;;;;4934952;28;20310;-72
2021/09/26 00:49:26;;;;;;;10.17;9.17;;;;;;;;;;4931397;28;20183;-71
2021/09/26 00:51:52;;;;;;;7.60;6.90;;;;;;;;;;4934340;28;20196;-72
2021/09/26 00:54:17;;;;;;;10.90;7.77;;;;;;;;;;4934134;28;20179;-71
2021/09/26 00:56:45;;;;;;;9.63;8.27;;;;;;;;;;4933538;28;20191;-72
2021/09/26 00:59:10;;;;;;;9.73;8.60;;;;;;;;;;4933159;28;20241;-72
2021/09/26 01:01:35;;;;;;;9.00;8.20;;;;;;;;;;4932583;28;20999;-72
2021/09/26 01:04:01;;;;;;;10.00;7.90;;;;;;;;;;4932946;28;20186;-72
2021/09/26 01:06:43;;;;;;;9.20;7.40;;;;;;;;;;4932047;28;20183;-72
2021/09/26 01:09:26;;;;;;;9.27;8.30;;;;;;;;;;4937646;28;20656;-72
2021/09/26 01:12:07;;;;;;;8.90;8.07;;;;;;;;;;4933108;28;20477;-71
2021/09/26 01:14:37;;;;;;;11.77;8.30;;;;;;;;;;4937449;28;21256;-71
2021/09/26 01:17:16;;;;;;;11.30;8.07;;;;;;;;;;4941333;28;20477;-72
2021/09/26 01:19:48;;;;;;;12.63;7.47;;;;;;;;;;4934556;28;20436;-72
2021/09/26 01:22:18;;;;;;;10.20;8.40;;;;;;;;;;4929970;28;20850;-71
2021/09/26 01:24:47;;;;;;;9.90;8.00;;;;;;;;;;4935139;28;20514;-72
2021/09/26 01:27:22;;;;;;;11.33;7.57;;;;;;;;;;4932656;28;20534;-71
2021/09/26 01:30:09;;;;;;;8.13;7.33;;;;;;;;;;4929780;28;20422;-72
2021/09/26 01:32:36;;;;;;;8.67;7.70;;;;;;;;;;4933457;28;20478;-72
2021/09/26 01:35:03;;;;;;;7.40;6.80;;;;;;;;;;4931803;28;20446;-72
2021/09/26 01:37:30;;;;;;;9.03;7.93;;;;;;;;;;4932726;28;20435;-71
2021/09/26 01:40:01;;;;;;;7.83;7.23;;;;;;;;;;4933928;28;20531;-71
2021/09/26 01:42:29;;;;;;;9.37;7.63;;;;;;;;;;4930261;28;21030;-71
2021/09/26 01:44:56;;;;;;;10.00;7.57;;;;;;;;;;4928643;28;20846;-72
2021/09/26 01:47:30;;;;;;;12.37;8.90;;;;;;;;;;4930003;28;20488;-72
2021/09/26 01:50:00;;;;;;;7.90;7.20;;;;;;;;;;4933209;28;20427;-72
2021/09/26 01:52:27;;;;;;;8.37;7.57;;;;;;;;;;4933966;28;20957;-72
2021/09/26 01:54:53;;;;;;;8.77;7.60;;;;;;;;;;4934284;28;20491;-72
2021/09/26 01:57:20;;;;;;;12.17;7.87;;;;;;;;;;4935491;28;20498;-72
2021/09/26 01:59:53;;;;;;;9.50;8.27;;;;;;;;;;4934185;28;20249;-72
2021/09/26 02:02:18;;;;;;;10.03;8.10;;;;;;;;;;4948381;28;20901;-72
2021/09/26 02:04:51;;;;;;;11.30;8.10;;;;;;;;;;4935879;28;20470;-72
2021/09/26 02:07:16;;;;;;;10.43;7.03;;;;;;;;;;4941424;28;20187;-72
2021/09/26 02:09:43;;;;;;;10.50;8.47;;;;;;;;;;4936774;28;20490;-72
2021/09/26 02:12:08;;;;;;;9.17;8.27;;;;;;;;;;4934876;28;20614;-72
2021/09/26 02:14:34;;;;;;;9.40;8.30;;;;;;;;;;4939256;28;20466;-72
2021/09/26 02:17:00;;;;;;;9.93;7.70;;;;;;;;;;4936753;28;20194;-71
2021/09/26 02:19:26;;;;;;;8.90;7.67;;;;;;;;;;4937008;28;20439;-72
2021/09/26 02:21:51;;;;;;;8.83;7.97;;;;;;;;;;4936890;28;20593;-72
2021/09/26 02:24:16;;;;;;;10.50;8.97;;;;;;;;;;4945370;28;20187;-72
2021/09/26 02:26:42;;;;;;;8.93;8.03;;;;;;;;;;4936007;28;20660;-72
2021/09/26 02:29:07;;;;;;;11.23;7.87;;;;;;;;;;4933756;28;20604;-72
2021/09/26 02:31:35;;;;;;;10.57;8.83;;;;;;;;;;4936402;28;20830;-72
2021/09/26 02:34:00;;;;;;;12.63;9.90;;;;;;;;;;4933559;28;20178;-72
2021/09/26 02:36:26;;;;;;;10.73;9.67;;;;;;;;;;4933494;28;20458;-72
2021/09/26 02:38:51;;;;;;;9.87;8.93;;;;;;;;;;4933049;28;20247;-72
2021/09/26 02:41:16;;;;;;;10.10;9.10;;;;;;;;;;4936497;28;20215;-72
2021/09/26 02:43:41;;;;;;;10.93;8.83;;;;;;;;;;4931785;28;20836;-72
2021/09/26 02:46:10;;;;;;;11.70;9.70;;;;;;;;;;4937154;28;20190;-72
2021/09/26 02:48:36;;;;;;;11.40;10.17;;;;;;;;;;4931825;28;20190;-72
2021/09/26 02:51:01;;;;;;;12.23;9.73;;;;;;;;;;4933247;28;20466;-72
2021/09/26 02:53:27;;;;;;;10.70;9.60;;;;;;;;;;4934585;28;20184;-72
2021/09/26 02:55:54;;;;;;;10.20;9.10;;;;;;;;;;4932443;28;20203;-72
2021/09/26 02:58:19;;;;;;;11.77;10.53;;;;;;;;;;4934595;28;20202;-72
2021/09/26 03:00:46;;;;;;;11.43;10.30;;;;;;;;;;4931770;28;20842;-71
2021/09/26 03:03:11;;;;;;;11.47;10.33;;;;;;;;;;4937981;28;20183;-72
2021/09/26 03:05:37;;;;;;;10.20;9.20;;;;;;;;;;4934781;28;20431;-72
2021/09/26 03:08:03;;;;;;;13.10;10.60;;;;;;;;;;4934073;28;20187;-72
2021/09/26 03:10:28;;;;;;;12.80;11.60;;;;;;;;;;4941431;28;20548;-71
2021/09/26 03:12:53;;;;;;;14.50;11.40;;;;;;;;;;4934456;28;20207;-71
2021/09/26 03:15:18;;;;;;;13.40;10.67;;;;;;;;;;4932610;28;20234;-71
2021/09/26 03:17:44;;;;;;;13.30;11.47;;;;;;;;;;4935056;28;20182;-72
2021/09/26 03:20:09;;;;;;;14.43;11.80;;;;;;;;;;4933330;28;20220;-71
2021/09/26 03:22:34;;;;;;;13.47;12.07;;;;;;;;;;4937196;28;20682;-71
2021/09/26 03:25:00;;;;;;;15.80;11.20;;;;;;;;;;4933091;28;20636;-72
2021/09/26 03:27:25;;;;;;;13.70;12.37;;;;;;;;;;4937953;28;20520;-72
2021/09/26 03:29:51;;;;;;;13.73;12.40;;;;;;;;;;4929783;28;20190;-71
2021/09/26 03:32:16;;;;;;;13.17;11.77;;;;;;;;;;4929193;28;20316;-72
2021/09/26 03:34:42;;;;;;;13.97;12.40;;;;;;;;;;4931966;28;20443;-71
2021/09/26 03:37:08;;;;;;;14.20;12.70;;;;;;;;;;4942425;28;20671;-71
2021/09/26 03:39:34;;;;;;;14.47;12.97;;;;;;;;;;4931376;28;20207;-71
2021/09/26 03:41:59;;;;;;;13.63;12.27;;;;;;;;;;4936903;28;20976;-71
2021/09/26 03:44:24;;;;;;;14.67;12.80;;;;;;;;;;4931964;28;20859;-71
2021/09/26 03:46:50;;;;;;;14.47;12.40;;;;;;;;;;4933470;28;20192;-72
2021/09/26 03:49:15;;;;;;;14.87;13.30;;;;;;;;;;4932683;28;20180;-72
2021/09/26 03:51:42;;;;;;;13.53;11.93;;;;;;;;;;4933390;28;20215;-71
2021/09/26 03:54:07;;;;;;;13.90;12.50;;;;;;;;;;4934075;28;20270;-72
2021/09/26 03:56:32;;;;;;;13.23;11.83;;;;;;;;;;4930033;28;20444;-72
2021/09/26 03:58:58;;;;;;;13.70;12.27;;;;;;;;;;4927288;28;20238;-72
2021/09/26 04:01:23;;;;;;;13.43;12.23;;;;;;;;;;4929600;28;20223;-71
2021/09/26 04:03:48;;;;;;;14.20;12.70;;;;;;;;;;4930375;28;20184;-72
2021/09/26 04:06:14;;;;;;;14.47;12.97;;;;;;;;;;4933463;28;20185;-71
2021/09/26 04:08:39;;;;;;;12.97;11.77;;;;;;;;;;4932891;28;20211;-71
2021/09/26 04:11:05;;;;;;;12.77;11.47;;;;;;;;;;4931425;28;20306;-71
2021/09/26 04:13:31;;;;;;;13.47;12.20;;;;;;;;;;4937947;28;20268;-71
2021/09/26 04:15:56;;;;;;;18.00;13.30;;;;;;;;;;4932481;28;20458;-71
2021/09/26 04:18:21;;;;;;;14.30;12.67;;;;;;;;;;4933263;28;20188;-72
2021/09/26 04:20:46;;;;;;;15.07;13.67;;;;;;;;;;4931199;28;20572;-70
2021/09/26 04:23:12;;;;;;;14.50;13.03;;;;;;;;;;4928732;28;20269;-72
2021/09/26 04:25:37;;;;;;;14.43;12.60;;;;;;;;;;4931103;28;20318;-72
2021/09/26 04:28:02;;;;;;;13.90;12.40;;;;;;;;;;4927600;28;20180;-71
2021/09/26 04:30:28;;;;;;;13.10;12.00;;;;;;;;;;4930050;28;20192;-72
2021/09/26 04:32:53;;;;;;;14.57;13.13;;;;;;;;;;4931870;28;20200;-71
2021/09/26 04:35:18;;;;;;;15.13;13.47;;;;;;;;;;4936440;28;20274;-71
2021/09/26 04:37:44;;;;;;;14.83;13.23;;;;;;;;;;4919270;28;20184;-71
2021/09/26 04:40:09;;;;;;;14.33;12.93;;;;;;;;;;4925732;28;20194;-71
2021/09/26 04:42:35;;;;;;;16.27;14.00;;;;;;;;;;4922564;28;20960;-71
2021/09/26 04:45:00;;;;;;;14.50;13.00;;;;;;;;;;4933310;28;20179;-71
2021/09/26 04:47:25;;;;;;;14.03;12.63;;;;;;;;;;4932005;28;20190;-71
2021/09/26 04:49:51;;;;;;;13.53;12.23;;;;;;;;;;4927567;28;20309;-72
2021/09/26 04:52:16;;;;;;;14.77;13.27;;;;;;;;;;4924576;28;20221;-72
2021/09/26 04:54:41;;;;;;;14.73;13.27;;;;;;;;;;4930018;28;20192;-72
2021/09/26 04:57:07;;;;;;;15.37;13.73;;;;;;;;;;4932408;28;20187;-72
2021/09/26 04:59:32;;;;;;;15.63;13.73;;;;;;;;;;4925776;28;20198;-72
2021/09/26 05:01:57;;;;;;;18.70;14.03;;;;;;;;;;4928445;28;20210;-71
2021/09/26 05:04:23;;;;;;;16.03;13.73;;;;;;;;;;4933685;28;20657;-72
2021/09/26 05:06:48;;;;;;;15.10;13.50;;;;;;;;;;4925789;28;20772;-72
2021/09/26 05:09:13;;;;;;;14.53;13.13;;;;;;;;;;4927775;28;21047;-72
2021/09/26 05:11:41;;;;;;;15.43;13.97;;;;;;;;;;4921549;28;20271;-72
2021/09/26 05:14:07;;;;;;;14.80;13.33;;;;;;;;;;4922421;28;20207;-72
2021/09/26 05:16:32;;;;;;;13.73;12.43;;;;;;;;;;4925626;28;20431;-71
2021/09/26 05:18:58;;;;;;;14.73;13.13;;;;;;;;;;4928199;28;20699;-70
2021/09/26 05:21:23;;;;;;;14.73;12.90;;;;;;;;;;4924451;28;21117;-73
2021/09/26 05:23:49;;;;;;;15.10;13.60;;;;;;;;;;4924645;28;20617;-71
2021/09/26 05:26:15;;;;;;;14.80;13.40;;;;;;;;;;4932720;28;20641;-71
2021/09/26 05:28:43;;;;;;;14.50;12.80;;;;;;;;;;4921934;28;20180;-71
2021/09/26 05:31:09;;;;;;;15.13;13.53;;;;;;;;;;4931998;28;20462;-71
2021/09/26 05:33:34;;;;;;;13.93;12.60;;;;;;;;;;4929975;28;20915;-71
2021/09/26 05:35:59;;;;;;;14.27;12.97;;;;;;;;;;4936075;28;20191;-71
2021/09/26 05:38:25;;;;;;;19.03;14.07;;;;;;;;;;4930517;28;20191;-72
2021/09/26 05:40:50;;;;;;;15.87;14.20;;;;;;;;;;4924392;28;20196;-71
2021/09/26 05:43:15;;;;;;;15.00;13.30;;;;;;;;;;4932879;28;20198;-72
2021/09/26 05:45:41;;;;;;;14.67;13.27;;;;;;;;;;4929432;28;20705;-71
2021/09/26 05:48:06;;;;;;;14.87;13.30;;;;;;;;;;4922486;28;20235;-71
2021/09/26 05:50:31;;;;;;;19.03;14.63;;;;;;;;;;4935341;28;20184;-72
2021/09/26 05:53:00;;;;;;;15.50;13.90;;;;;;;;;;4932317;28;20200;-71
2021/09/26 05:55:25;;;;;;;14.67;13.23;;;;;;;;;;4931900;28;20183;-71
2021/09/26 05:57:57;;;;;;;14.60;13.30;;;;;;;;;;4937779;28;20521;-72
2021/09/26 06:00:25;;;;;;;14.70;13.20;;;;;;;;;;4933161;28;20561;-71
2021/09/26 06:02:51;;;;;;;16.10;13.47;;;;;;;;;;4924187;28;20471;-71
2021/09/26 06:05:16;;;;;;;14.13;12.77;;;;;;;;;;4923894;28;20431;-71
2021/09/26 06:07:41;;;;;;;14.40;13.00;;;;;;;;;;4928727;28;20332;-71
2021/09/26 06:10:06;;;;;;;15.83;14.17;;;;;;;;;;4926467;28;20561;-72
2021/09/26 06:12:32;;;;;;;18.40;14.70;;;;;;;;;;4921992;28;20203;-71
2021/09/26 06:14:57;;;;;;;15.00;13.60;;;;;;;;;;4918391;28;20238;-72
2021/09/26 06:17:23;;;;;;;14.13;12.63;;;;;;;;;;4925922;28;21281;-72
2021/09/26 06:19:49;;;;;;;15.87;14.30;;;;;;;;;;4928473;28;20227;-72
2021/09/26 06:22:15;;;;;;;15.77;14.17;;;;;;;;;;4925248;28;20828;-72
2021/09/26 06:24:40;;;;;;;15.50;13.90;;;;;;;;;;4929396;28;20207;-70
2021/09/26 06:27:05;;;;;;;15.87;14.27;;;;;;;;;;4929057;28;20447;-71
2021/09/26 06:29:31;;;;;;;15.77;13.53;;;;;;;;;;4942377;28;20179;-71
2021/09/26 06:31:56;;;;;;;15.50;13.90;;;;;;;;;;4930496;28;20195;-72
2021/09/26 06:34:21;;;;;;;15.67;14.07;;;;;;;;;;4932516;28;20685;-71
2021/09/26 06:36:46;;;;;;;16.00;14.50;;;;;;;;;;4936037;28;20262;-72
2021/09/26 06:39:12;;;;;;;14.97;12.80;;;;;;;;;;4935609;28;20187;-72
2021/09/26 06:41:38;;;;;;;16.80;15.10;;;;;;;;;;4937439;23;20276;-72
2021/09/26 06:44:03;;;;;;;15.53;13.93;;;;;;;;;;4935119;28;20295;-70
2021/09/26 06:46:28;;;;;;;17.57;14.53;;;;;;;;;;4942282;28;20187;-71
2021/09/26 06:48:54;;;;;;;15.57;12.70;;;;;;;;;;4939657;28;20226;-72
2021/09/26 06:51:21;;;;;;;15.10;13.60;;;;;;;;;;4932981;28;20207;-72
2021/09/26 06:53:47;;;;;;;15.30;13.40;;;;;;;;;;4925058;28;20187;-72
2021/09/26 06:56:12;;;;;;;14.83;13.30;;;;;;;;;;4934589;28;20502;-72
2021/09/26 06:58:37;;;;;;;16.27;14.57;;;;;;;;;;4932583;28;20274;-72
2021/09/26 07:01:03;;;;;;;15.33;13.70;;;;;;;;;;4934204;28;20219;-72
2021/09/26 07:03:28;;;;;;;15.67;13.00;;;;;;;;;;4929731;28;20811;-72
2021/09/26 07:05:54;;;;;;;13.70;12.30;;;;;;;;;;4937370;28;20179;-72
2021/09/26 07:08:19;;;;;;;13.97;12.47;;;;;;;;;;4936923;28;20244;-72
2021/09/26 07:10:44;;;;;;;14.10;12.60;;;;;;;;;;4934033;28;20280;-71
2021/09/26 07:13:09;;;;;;;15.50;13.10;;;;;;;;;;4937696;28;20179;-72
2021/09/26 07:15:35;;;;;;;13.83;12.50;;;;;;;;;;4939418;28;20186;-71
2021/09/26 07:18:00;;;;;;;14.03;12.73;;;;;;;;;;4937555;28;20181;-72
2021/09/26 07:20:31;;;;;;;13.80;12.50;;;;;;;;;;4938481;28;20260;-72
2021/09/26 07:22:57;;;;;;;15.37;13.77;;;;;;;;;;4927331;28;20199;-72
2021/09/26 07:25:22;;;;;;;14.13;12.83;;;;;;;;;;4920807;28;20838;-72
2021/09/26 07:27:47;;;;;;;15.03;13.50;;;;;;;;;;4922822;28;20559;-71
2021/09/26 07:30:13;;;;;;;14.83;13.33;;;;;;;;;;4935493;28;20184;-71
2021/09/26 07:32:38;;;;;;;14.33;12.93;;;;;;;;;;4934486;28;20215;-71
2021/09/26 07:35:04;;;;;;;15.80;13.57;;;;;;;;;;4937196;28;20272;-71
2021/09/26 07:37:29;;;;;;;14.83;13.40;;;;;;;;;;4931228;28;20286;-72
2021/09/26 07:39:55;;;;;;;14.80;13.40;;;;;;;;;;4935671;28;20183;-71
2021/09/26 07:42:20;;;;;;;15.77;12.60;;;;;;;;;;4934139;28;20633;-70
2021/09/26 07:44:45;;;;;;;15.43;13.83;;;;;;;;;;4935101;28;20278;-72
2021/09/26 07:47:10;;;;;;;14.07;12.60;;;;;;;;;;4930362;28;20196;-71
2021/09/26 07:49:36;;;;;;;12.43;11.23;;;;;;;;;;4930683;28;20827;-72
2021/09/26 07:52:01;;;;;;;13.30;12.00;;;;;;;;;;4922953;28;20232;-71
2021/09/26 07:54:32;;;;;;;13.03;11.70;;;;;;;;;;4928795;28;20557;-71
2021/09/26 07:56:58;;;;;;;12.93;11.53;;;;;;;;;;4929627;28;20207;-72
2021/09/26 07:59:23;;;;;;;13.90;12.50;;;;;;;;;;4932593;28;21429;-72
2021/09/26 08:01:49;;;;;;;14.20;12.63;;;;;;;;;;4921209;28;21041;-71
2021/09/26 08:04:15;;;;;;;15.47;13.87;;;;;;;;;;4924496;28;20180;-73
2021/09/26 08:06:40;;;;;;;14.37;12.87;;;;;;;;;;4928452;28;20246;-72
2021/09/26 08:09:05;;;;;;;14.40;11.70;;;;;;;;;;4936964;28;20191;-72
2021/09/26 08:11:30;;;;;;;12.63;11.43;;;;;;;;;;4935387;28;20272;-72
2021/09/26 08:13:56;;;;;;;11.20;10.00;;;;;;;;;;4932579;28;20187;-72
2021/09/26 08:16:21;;;;;;;12.33;11.07;;;;;;;;;;4927920;28;21191;-72
2021/09/26 08:18:46;;;;;;;11.93;10.93;;;;;;;;;;4931915;28;20234;-72
2021/09/26 08:21:12;;;;;;;11.67;10.67;;;;;;;;;;4928999;28;20596;-71
2021/09/26 08:23:37;;;;;;;12.30;11.10;;;;;;;;;;4930860;28;20192;-71
2021/09/26 08:26:03;;;;;;;11.67;10.47;;;;;;;;;;4932864;28;20201;-72
2021/09/26 08:28:29;;;;;;;12.30;11.00;;;;;;;;;;4932615;28;20266;-71
2021/09/26 08:30:54;;;;;;;10.33;9.33;;;;;;;;;;4932197;28;20208;-73
2021/09/26 08:33:19;;;;;;;10.73;9.73;;;;;;;;;;4926725;28;21027;-72
2021/09/26 08:35:45;;;;;;;11.70;9.40;;;;;;;;;;4925230;28;20195;-72
2021/09/26 08:38:12;;;;;;;10.33;9.33;;;;;;;;;;4929516;28;20669;-73
2021/09/26 08:40:37;;;;;;;9.67;8.77;;;;;;;;;;4933893;28;20559;-72
2021/09/26 08:43:02;;;;;;;9.90;8.90;;;;;;;;;;4931328;28;20451;-73
2021/09/26 08:45:28;;;;;;;9.30;8.40;;;;;;;;;;4930959;28;20176;-72
2021/09/26 08:47:53;;;;;;;10.03;8.83;;;;;;;;;;4926977;28;20206;-72
2021/09/26 08:50:20;;;;;;;9.97;9.07;;;;;;;;;;4932598;28;20777;-73
2021/09/26 08:52:45;;;;;;;10.67;9.57;;;;;;;;;;4932976;28;20220;-72
2021/09/26 08:55:14;;;;;;;11.07;8.80;;;;;;;;;;4934084;28;20439;-72
2021/09/26 08:57:40;;;;;;;9.37;8.57;;;;;;;;;;4929790;28;20645;-72
2021/09/26 09:00:09;;;;;;;9.37;8.30;;;;;;;;;;4931704;28;20428;-72
2021/09/26 09:02:35;;;;;;;9.40;8.50;;;;;;;;;;4933474;28;20215;-72
2021/09/26 09:05:00;;;;;;;8.40;7.60;;;;;;;;;;4925862;28;20450;-72
2021/09/26 09:07:25;;;;;;;8.90;8.00;;;;;;;;;;4935052;28;20183;-72
2021/09/26 09:09:55;;;;;;;8.40;7.60;;;;;;;;;;4931276;28;20186;-73
2021/09/26 09:12:32;;;;;;;8.70;7.90;;;;;;;;;;4929131;28;20212;-73
2021/09/26 09:14:59;;;;;;;8.43;7.63;;;;;;;;;;4927110;28;20637;-72
2021/09/26 09:17:33;;;;;;;8.33;7.53;;;;;;;;;;4928700;28;20444;-73
2021/09/26 09:20:11;;;;;;;8.30;7.50;;;;;;;;;;4935663;28;20435;-72
2021/09/26 09:22:37;;;;;;;7.97;7.27;;;;;;;;;;4933256;28;20465;-72
2021/09/26 09:25:02;;;;;;;7.23;6.53;;;;;;;;;;4929747;28;20453;-71
2021/09/26 09:27:27;;;;;;;7.33;6.57;;;;;;;;;;4928559;28;20519;-73
2021/09/26 09:29:53;;;;;;;7.53;6.77;;;;;;;;;;4927517;28;20188;-72
2021/09/26 09:32:18;;;;;;;8.63;7.73;;;;;;;;;;4934307;28;20199;-72
2021/09/26 09:34:44;;;;;;;7.80;7.10;;;;;;;;;;4933430;28;20219;-73
2021/09/26 09:37:09;;;;;;;10.30;8.63;;;;;;;;;;4933894;28;20198;-72
2021/09/26 09:39:34;;;;;;;9.57;7.67;;;;;;;;;;4928175;28;20578;-73
2021/09/26 09:42:01;;;;;;;8.47;7.60;;;;;;;;;;4929331;28;20215;-73
2021/09/26 09:44:35;;;;;;;9.20;7.80;;;;;;;;;;4921162;28;20180;-73
2021/09/26 09:47:00;;;;;;;12.93;8.07;;;;;;;;;;4932980;28;20430;-73
2021/09/26 09:49:25;;;;;;;9.43;7.63;;;;;;;;;;4930353;28;20445;-73
2021/09/26 09:51:52;;;;;;;9.50;8.40;;;;;;;;;;4931313;28;20253;-73
2021/09/26 09:54:31;;;;;;;9.97;8.03;;;;;;;;;;4934318;28;20669;-74
2021/09/26 09:56:58;;;;;;;9.27;7.57;;;;;;;;;;4923964;28;20442;-73
2021/09/26 09:59:33;;;;;;;9.43;8.53;;;;;;;;;;4934638;28;20435;-72
2021/09/26 10:01:58;;;;;;;8.53;7.73;;;;;;;;;;4934885;28;20472;-73
2021/09/26 10:04:33;;;;;;;9.80;8.83;;;;;;;;;;4936977;28;20428;-73
2021/09/26 10:06:59;;;;;;;11.70;10.57;;;;;;;;;;4929841;28;20179;-73
2021/09/26 10:09:25;;;;;;;10.67;9.57;;;;;;;;;;4931304;28;20443;-73
2021/09/26 10:11:50;;;;;;;11.90;10.27;;;;;;;;;;4935523;28;20240;-73
2021/09/26 10:14:16;;;;;;;10.83;9.03;;;;;;;;;;4924134;28;20885;-73
2021/09/26 10:16:42;;;;;;;12.47;8.33;;;;;;;;;;4929176;28;20187;-73
2021/09/26 10:19:07;;;;;;;11.27;10.10;;;;;;;;;;4936745;28;20838;-73
2021/09/26 10:21:33;;;;;;;8.90;8.10;;;;;;;;;;4932348;28;20242;-74
2021/09/26 10:23:58;;;;;;;11.07;10.07;;;;;;;;;;4932036;28;20175;-73
2021/09/26 10:26:42;;;;;;;10.17;9.20;;;;;;;;;;4928886;28;20187;-72
2021/09/26 10:29:09;;;;;;;10.90;9.30;;;;;;;;;;4945469;28;20175;-72
2021/09/26 10:31:35;;;;;;;11.43;10.23;;;;;;;;;;4941651;28;20453;-72
2021/09/26 10:34:01;;;;;;;12.33;10.93;;;;;;;;;;4940367;28;20442;-73
2021/09/26 10:36:28;;;;;;;11.20;9.63;;;;;;;;;;4940612;28;20180;-73
2021/09/26 10:38:54;;;;;;;9.13;8.23;;;;;;;;;;4941863;28;20443;-72
2021/09/26 10:41:19;;;;;;;8.63;7.20;;;;;;;;;;4938869;28;21066;-72
2021/09/26 10:43:45;;;;;;;10.27;9.27;;;;;;;;;;4943205;28;20259;-73
2021/09/26 10:46:28;;;;;;;11.33;9.17;;;;;;;;;;4938792;28;20188;-74
2021/09/26 10:48:56;;;;;;;12.30;11.00;;;;;;;;;;4942204;28;20411;-72
2021/09/26 10:51:40;;;;;;;12.43;10.70;;;;;;;;;;4941219;28;20455;-72
2021/09/26 10:54:23;;;;;;;13.03;10.40;;;;;;;;;;4944266;28;20443;-72
2021/09/26 10:56:49;;;;;;;11.33;10.13;;;;;;;;;;4942366;28;20454;-71
2021/09/26 10:59:15;;;;;;;9.80;8.80;;;;;;;;;;4940605;28;21282;-72
2021/09/26 11:01:40;;;;;;;10.33;9.23;;;;;;;;;;4946841;28;20470;-73
2021/09/26 11:04:10;;;;;;;10.27;9.27;;;;;;;;;;4940700;28;20261;-72
2021/09/26 11:06:35;;;;;;;13.60;10.87;;;;;;;;;;4943782;28;20180;-72
2021/09/26 11:09:02;;;;;;;11.00;9.90;;;;;;;;;;4942605;28;20446;-72
2021/09/26 11:11:38;;;;;;;11.60;10.50;;;;;;;;;;4940124;28;20199;-72
2021/09/26 11:14:05;;;;;;;11.17;9.97;;;;;;;;;;4943116;28;21010;-72
2021/09/26 11:16:50;;;;;;;10.07;9.17;;;;;;;;;;4941465;28;20431;-72
2021/09/26 11:19:15;;;;;;;9.23;8.17;;;;;;;;;;4937431;28;20435;-72
2021/09/26 11:21:42;;;;;;;10.60;9.00;;;;;;;;;;4939590;28;20505;-73
2021/09/26 11:24:07;;;;;;;11.67;10.47;;;;;;;;;;4939163;29;20206;-72
2021/09/26 11:27:02;;;;;;;10.90;9.77;;;;;;;;;;4935737;28;20459;-72
2021/09/26 11:29:29;;;;;;;10.70;9.60;;;;;;;;;;4935332;28;20352;-73
2021/09/26 11:31:54;;;;;;;9.60;8.70;;;;;;;;;;4940453;28;21007;-72
2021/09/26 11:34:39;;;;;;;14.33;9.07;;;;;;;;;;4942007;28;20439;-72
2021/09/26 11:37:06;;;;;;;10.20;8.43;;;;;;;;;;4936867;28;20211;-72
2021/09/26 11:39:31;;;;;;;8.80;7.90;;;;;;;;;;4935455;28;20439;-72
2021/09/26 11:41:57;;;;;;;9.80;8.90;;;;;;;;;;4939786;28;20526;-71
2021/09/26 11:44:22;;;;;;;12.83;10.60;;;;;;;;;;4941200;28;20218;-72
2021/09/26 11:46:48;;;;;;;11.10;10.00;;;;;;;;;;4938205;28;20187;-71
2021/09/26 11:49:15;;;;;;;10.43;9.43;;;;;;;;;;4938744;28;20266;-71
2021/09/26 11:51:41;;;;;;;10.73;9.70;;;;;;;;;;4938831;28;20207;-72
2021/09/26 11:54:07;;;;;;;10.53;8.97;;;;;;;;;;4935363;28;20439;-73
2021/09/26 11:56:34;;;;;;;11.87;9.60;;;;;;;;;;4935891;28;20215;-73
2021/09/26 11:59:02;;;;;;;10.80;9.70;;;;;;;;;;4932432;28;20439;-74
2021/09/26 12:01:29;;;;;;;11.30;10.10;;;;;;;;;;4938722;28;20463;-73
2021/09/26 12:04:03;;;;;;;11.70;9.30;;;;;;;;;;4939632;28;20517;-73
2021/09/26 12:06:28;;;;;;;13.80;10.20;;;;;;;;;;4934933;28;20430;-72
2021/09/26 12:08:53;;;;;;;14.27;12.20;;;;;;;;;;4936223;28;20431;-72
2021/09/26 12:11:20;;;;;;;14.17;12.67;;;;;;;;;;4933565;28;20203;-72
2021/09/26 12:13:48;;;;;;;10.47;9.40;;;;;;;;;;4935088;28;20662;-73
2021/09/26 12:16:14;;;;;;;10.20;9.20;;;;;;;;;;4940730;29;20495;-72
2021/09/26 12:18:39;;;;;;;9.63;8.00;;;;;;;;;;4934353;28;20470;-72
2021/09/26 12:21:07;;;;;;;8.13;7.33;;;;;;;;;;4937638;28;20211;-72
2021/09/26 12:24:11;;;;;;;11.70;8.77;;;;;;;;;;4938425;28;20207;-72
2021/09/26 12:26:39;;;;;;;12.40;9.67;;;;;;;;;;4935576;28;20452;-71
2021/09/26 12:29:11;;;;;;;9.20;8.30;;;;;;;;;;4929794;28;20435;-72
2021/09/26 12:31:37;;;;;;;9.70;8.70;;;;;;;;;;4929141;28;20475;-73
2021/09/26 12:34:04;;;;;;;11.20;8.57;;;;;;;;;;4933055;28;20431;-74
2021/09/26 12:36:31;;;;;;;11.00;9.90;;;;;;;;;;4931949;28;20552;-72
2021/09/26 12:38:56;;;;;;;10.67;9.30;;;;;;;;;;4934968;28;20924;-72
2021/09/26 12:41:27;;;;;;;12.10;10.80;;;;;;;;;;4935875;28;20991;-73
2021/09/26 12:44:01;;;;;;;14.73;10.67;;;;;;;;;;4937699;28;20215;-72
2021/09/26 12:46:29;;;;;;;9.63;8.63;;;;;;;;;;4926358;28;21003;-73
2021/09/26 12:48:57;;;;;;;10.37;8.03;;;;;;;;;;4935203;28;20427;-73
2021/09/26 12:51:43;;;;;;;10.23;8.73;;;;;;;;;;4936380;28;20473;-74
2021/09/26 12:54:09;;;;;;;10.60;9.60;;;;;;;;;;4941020;28;20526;-74
2021/09/26 12:56:40;;;;;;;11.10;10.00;;;;;;;;;;4940424;28;20451;-73
2021/09/26 12:59:27;;;;;;;12.13;9.20;;;;;;;;;;4939358;28;20446;-73
2021/09/26 13:02:00;;;;;;;9.00;8.10;;;;;;;;;;4933367;28;20481;-77
2021/09/26 13:04:25;;;;;;;9.57;8.57;;;;;;;;;;4939654;28;20457;-77
2021/09/26 13:06:52;;;;;;;9.27;8.37;;;;;;;;;;4941076;28;20430;-75
2021/09/26 13:09:34;;;;;;;12.47;9.50;;;;;;;;;;4942324;28;20267;-79
2021/09/26 13:12:19;;;;;;;10.43;9.37;;;;;;;;;;4942512;28;20485;-77
2021/09/26 13:14:44;;;;;;;12.43;9.73;;;;;;;;;;4935449;28;20440;-77
2021/09/26 13:17:12;;;;;;;9.40;8.10;;;;;;;;;;4939238;28;20443;-76
2021/09/26 13:19:40;;;;;;;9.30;7.87;;;;;;;;;;4939490;28;20184;-76
2021/09/26 13:22:14;;;;;;;8.83;7.93;;;;;;;;;;4936254;28;20481;-77
2021/09/26 13:24:44;;;;;;;7.83;7.13;;;;;;;;;;4932863;28;20454;-76
2021/09/26 13:27:29;;;;;;;9.10;8.03;;;;;;;;;;4933950;28;21028;-74
2021/09/26 13:29:54;;;;;;;10.50;8.27;;;;;;;;;;4932118;28;20418;-75
2021/09/26 13:32:22;;;;;;;12.90;8.43;;;;;;;;;;4934376;28;20459;-75
2021/09/26 13:34:55;;;;;;;11.53;10.00;;;;;;;;;;4930358;28;20290;-75
2021/09/26 13:37:21;;;;;;;12.17;10.80;;;;;;;;;;4933944;28;20422;-75
2021/09/26 13:39:52;;;;;;;11.47;8.53;;;;;;;;;;4933292;28;20477;-75
2021/09/26 13:42:17;;;;;;;9.10;8.17;;;;;;;;;;4936745;28;20219;-74
2021/09/26 13:44:43;;;;;;;8.80;7.53;;;;;;;;;;4934464;29;20432;-75
2021/09/26 13:47:08;;;;;;;9.77;7.93;;;;;;;;;;4939384;29;20179;-74
2021/09/26 13:49:33;;;;;;;7.90;7.10;;;;;;;;;;4934953;28;20179;-74
2021/09/26 13:51:59;;;;;;;8.77;7.80;;;;;;;;;;4937491;28;20203;-72
2021/09/26 13:54:24;;;;;;;10.53;8.90;;;;;;;;;;4943350;28;20623;-73
2021/09/26 13:56:50;;;;;;;10.93;7.93;;;;;;;;;;4942317;28;20222;-72
2021/09/26 13:59:15;;;;;;;9.13;8.23;;;;;;;;;;4942672;28;20179;-73
2021/09/26 14:01:40;;;;;;;9.03;7.93;;;;;;;;;;4934059;28;20219;-73
2021/09/26 14:04:06;;;;;;;8.50;7.60;;;;;;;;;;4933241;28;20594;-73
2021/09/26 14:06:31;;;;;;;8.23;7.43;;;;;;;;;;4935597;28;20183;-73
2021/09/26 14:08:56;;;;;;;9.20;8.07;;;;;;;;;;4934948;28;20981;-72
2021/09/26 14:11:23;;;;;;;9.87;8.20;;;;;;;;;;4933213;28;20214;-73
2021/09/26 14:13:48;;;;;;;8.20;7.40;;;;;;;;;;4936887;28;20191;-73
2021/09/26 14:16:15;;;;;;;8.90;8.00;;;;;;;;;;4932680;28;20442;-74
2021/09/26 14:18:40;;;;;;;9.20;7.50;;;;;;;;;;4929769;28;20199;-73
2021/09/26 14:21:06;;;;;;;10.43;8.60;;;;;;;;;;4934306;28;20475;-73
2021/09/26 14:23:35;;;;;;;9.27;8.30;;;;;;;;;;4935809;28;20183;-74
2021/09/26 14:26:01;;;;;;;9.47;8.57;;;;;;;;;;4939748;28;20477;-72
2021/09/26 14:28:27;;;;;;;9.10;7.97;;;;;;;;;;4935108;28;20433;-72